07:33
Airports
History
Links
Donate
Help keep this website running!
PayPal
Bitcoin
This page is community maintained. The information is intended for PC simulator navigation or reference.
Always use approved charts for navigation.
VEMN
DIBRUGARH
DIBRUGARH (VEMN)
Dibrugarh, Assam, India (786010)
(C)
Lat/Lng:27° 29' 1.87" N / 95° 1' 0.92" E
27.483852 / 95.016921
Elevation:362'ft / 110mMSL
ID / ICAO:VEMN
Runways:1
Longest:05-23
Asphalt 1,835m / 6,019ft
Controlled:Yes
METAR07:00 GMT 2017-09-23
Altimeter: 29.80
Visibility: 2.5 statute miles
Wind: 10 knots (from 030°)
Temp: 29°c / 84°f
Humidity: 89.0%

METAR: VEMN 230700Z 03010KT 4000 BR FEW010 SCT018 FEW025CB BKN100 29/27 Q1009 NOSIG

(Powered by phpweather)
Airport Radio Frequencies
Tower: 122.7, 123.5
Nearby VORs <50NM
Nearby NDBs
Runway 05 / 23
Dimensions:1834.6 x 45.1m 6019' x 148'ft
Surface:Asphalt
Runway 05 [A]Runway 23 [B]
Heading:045°TH 225°TH
Lat:
Lng:
27° 28' 40.91"N
95° 0' 37.12"E
27° 29' 22.82"N
95° 1' 24.71"E
ALS:MALS
User Notes and Comments
27° 29' 1.87" N / 95° 1' 0.92" E
Distance To
Airport ID:
Nearby Airports
(U) CHABUA 6.4 NM
VECA ESE 103°
(U) SOOKERATING 34.3 NM
VE24 E 82°
4 ALONG 49.5 NM
VEAN NNW 344°
(C) LILABARI 57.9 NM
VELR ( WX ) WSW 257°
(C) ZERO 73.2 NM
VEZO W 275°
(C) JORHAT 73.3 NM
VEJT SW 224°
4 TEJU NEW 75.3 NM
VE48 ENE 65°
VFR Chart
Flight Planning at SkyVector.com